createdAt,value
2022-12-08T00:01:24.575Z,0.64
2022-12-08T00:03:52.174Z,0.66
2022-12-08T00:06:50.044Z,0.62
2022-12-08T00:09:39.447Z,0.61
2022-12-08T00:12:13.249Z,0.61
2022-12-08T00:14:45.866Z,0.61
2022-12-08T00:17:14.581Z,0.65
2022-12-08T00:19:42.392Z,0.62
2022-12-08T00:22:11.013Z,0.65
2022-12-08T00:24:39.999Z,0.61
2022-12-08T00:27:08.837Z,0.65
2022-12-08T00:29:36.058Z,0.60
2022-12-08T00:32:03.334Z,0.64
2022-12-08T00:34:31.509Z,0.59
2022-12-08T00:36:58.515Z,0.62
2022-12-08T00:39:25.568Z,0.63
2022-12-08T00:42:11.096Z,0.62
2022-12-08T00:44:38.864Z,0.62
2022-12-08T00:47:05.913Z,0.62
2022-12-08T00:49:32.933Z,0.53
2022-12-08T00:52:00.226Z,0.54
2022-12-08T00:54:27.226Z,0.51
2022-12-08T00:56:54.318Z,0.48
2022-12-08T00:59:21.394Z,0.48
2022-12-08T01:01:48.688Z,0.49
2022-12-08T01:04:17.975Z,0.49
2022-12-08T01:06:45.713Z,0.47
2022-12-08T01:09:15.707Z,0.52
2022-12-08T01:11:44.703Z,0.12
2022-12-08T01:14:12.737Z,0.55
2022-12-08T01:16:41.663Z,0.54
2022-12-08T01:19:12.192Z,0.56
2022-12-08T01:21:40.428Z,0.55
2022-12-08T01:24:08.035Z,0.57
2022-12-08T01:26:35.089Z,0.58
2022-12-08T01:29:02.155Z,0.54
2022-12-08T01:31:29.256Z,0.55
2022-12-08T01:33:56.804Z,0.54
2022-12-08T01:36:29.115Z,0.53
2022-12-08T01:38:58.744Z,0.53
2022-12-08T01:41:30.509Z,0.46
2022-12-08T01:44:10.904Z,0.50
2022-12-08T01:46:41.129Z,0.49
2022-12-08T01:49:24.903Z,0.46
2022-12-08T01:52:30.476Z,0.40
2022-12-08T01:55:10.768Z,0.36
2022-12-08T01:57:44.256Z,0.30
2022-12-08T02:00:15.070Z,0.24
2022-12-08T02:03:07.249Z,0.07
2022-12-08T02:05:39.979Z,0.14
2022-12-08T02:08:10.830Z,0.16
2022-12-08T02:10:41.169Z,0.17
2022-12-08T02:13:12.584Z,0.16
2022-12-08T02:15:53.577Z,0.14
2022-12-08T02:19:28.577Z,0.17
2022-12-08T02:22:04.898Z,0.16
2022-12-08T02:24:40.250Z,0.21
2022-12-08T02:27:36.748Z,0.18
2022-12-08T02:30:22.266Z,0.19
2022-12-08T02:33:14.205Z,0.19
2022-12-08T02:36:01.149Z,0.20
2022-12-08T02:38:31.010Z,0.20
2022-12-08T02:41:01.078Z,0.14
2022-12-08T02:43:44.102Z,0.16
2022-12-08T02:46:22.055Z,0.18
2022-12-08T02:48:51.744Z,0.19
2022-12-08T02:51:19.975Z,0.18
2022-12-08T02:53:48.209Z,0.19
2022-12-08T02:56:15.234Z,0.18
2022-12-08T02:58:51.165Z,0.17
2022-12-08T03:01:18.232Z,0.18
2022-12-08T03:04:06.303Z,0.20
2022-12-08T03:06:50.653Z,0.17
2022-12-08T03:09:43.649Z,0.15
2022-12-08T03:12:16.796Z,0.13
2022-12-08T03:14:48.376Z,0.11
2022-12-08T03:17:19.613Z,0.10
2022-12-08T03:19:49.127Z,0.13
2022-12-08T03:22:20.172Z,0.16
2022-12-08T03:24:47.519Z,0.16
2022-12-08T03:27:21.174Z,0.16
2022-12-08T03:29:51.070Z,0.12
2022-12-08T03:32:36.537Z,0.17
2022-12-08T03:35:09.679Z,0.14
2022-12-08T03:37:38.574Z,0.12
2022-12-08T03:40:08.844Z,0.11
2022-12-08T03:42:35.833Z,0.07
2022-12-08T03:45:03.358Z,0.05
2022-12-08T03:47:30.434Z,-0.04
2022-12-08T03:49:57.513Z,-0.02
2022-12-08T03:52:24.741Z,-0.03
2022-12-08T03:54:51.766Z,-0.04
2022-12-08T03:57:18.761Z,-0.04
2022-12-08T03:59:45.748Z,-0.04
2022-12-08T04:02:12.849Z,-0.13
2022-12-08T04:04:40.073Z,-0.14
2022-12-08T04:07:07.193Z,-0.07
2022-12-08T04:09:34.245Z,-0.13
2022-12-08T04:12:01.233Z,-0.11
2022-12-08T04:14:28.263Z,-0.12
2022-12-08T04:16:55.362Z,-0.11
2022-12-08T04:19:22.460Z,-0.11
2022-12-08T04:21:49.558Z,-0.15
2022-12-08T04:24:16.607Z,-0.11
2022-12-08T04:26:43.795Z,-0.16
2022-12-08T04:29:10.835Z,-0.20
2022-12-08T04:31:38.235Z,-0.18
2022-12-08T04:34:05.340Z,-0.22
2022-12-08T04:36:32.474Z,-0.22
2022-12-08T04:38:59.473Z,-0.18
2022-12-08T04:41:26.629Z,-0.16
2022-12-08T04:43:53.684Z,-0.15
2022-12-08T04:46:20.830Z,-0.18
2022-12-08T04:48:48.001Z,-0.12
2022-12-08T04:51:19.475Z,-0.09
2022-12-08T04:53:47.533Z,-0.10
2022-12-08T04:56:19.483Z,-0.08
2022-12-08T04:58:46.560Z,-0.04
2022-12-08T05:01:14.218Z,-0.07
2022-12-08T05:03:41.331Z,-0.03
2022-12-08T05:06:11.124Z,-0.08
2022-12-08T05:08:38.174Z,-0.04
2022-12-08T05:11:07.684Z,-0.08
2022-12-08T05:13:34.895Z,-0.09
2022-12-08T05:16:07.938Z,-0.11
2022-12-08T05:18:35.756Z,-0.13
2022-12-08T05:21:03.613Z,-0.23
2022-12-08T05:23:30.719Z,-0.12
2022-12-08T05:25:58.397Z,-0.13
2022-12-08T05:28:41.405Z,-0.15
2022-12-08T05:31:10.290Z,-0.13
2022-12-08T05:33:37.375Z,-0.13
2022-12-08T05:36:04.610Z,-0.20
2022-12-08T05:38:31.661Z,-0.16
2022-12-08T05:40:58.820Z,-0.23
2022-12-08T05:43:25.867Z,-0.21
2022-12-08T05:45:52.895Z,-0.20
2022-12-08T05:48:19.926Z,-0.23
2022-12-08T05:50:48.257Z,-0.18
2022-12-08T05:53:17.012Z,-0.16
2022-12-08T05:55:44.739Z,-0.14
2022-12-08T05:58:17.898Z,-0.11
2022-12-08T06:00:45.893Z,-0.08
2022-12-08T06:03:14.258Z,-0.09
2022-12-08T06:05:42.835Z,-0.08
2022-12-08T06:08:10.480Z,-0.10
2022-12-08T06:10:45.474Z,-0.13
2022-12-08T06:13:13.283Z,-0.11
2022-12-08T06:15:40.754Z,-0.12
2022-12-08T06:18:08.769Z,-0.12
2022-12-08T06:20:35.868Z,-0.30
2022-12-08T06:23:03.684Z,-0.13
2022-12-08T06:25:30.949Z,-0.27
2022-12-08T06:27:58.044Z,-0.18
2022-12-08T06:30:25.071Z,-0.24
2022-12-08T06:32:52.270Z,-0.20
2022-12-08T06:35:19.412Z,-0.15
2022-12-08T06:37:46.448Z,-0.16
2022-12-08T06:40:13.908Z,-0.09
2022-12-08T06:42:43.919Z,-0.08
2022-12-08T06:45:20.079Z,-0.06
2022-12-08T06:47:47.150Z,-0.06
2022-12-08T06:50:15.062Z,-0.06
2022-12-08T06:52:55.790Z,-0.09
2022-12-08T06:55:59.430Z,-0.10
2022-12-08T06:58:16.174Z,-0.13
2022-12-08T07:00:43.978Z,-0.18
2022-12-08T07:03:11.955Z,-0.13
2022-12-08T07:05:39.466Z,-0.10
2022-12-08T07:08:08.911Z,-0.11
2022-12-08T07:10:36.505Z,-0.10
2022-12-08T07:13:04.200Z,-0.08
2022-12-08T07:15:31.291Z,-0.09
2022-12-08T07:18:00.243Z,-0.06
2022-12-08T07:20:28.392Z,-0.02
2022-12-08T07:22:55.504Z,-0.02
2022-12-08T07:25:22.652Z,-0.07
2022-12-08T07:27:51.754Z,-0.02
2022-12-08T07:30:19.168Z,-0.04
2022-12-08T07:32:46.613Z,-0.04
2022-12-08T07:35:13.956Z,-0.06
2022-12-08T07:37:41.064Z,-0.05
2022-12-08T07:40:09.347Z,-0.05
2022-12-08T07:42:36.474Z,-0.09
2022-12-08T07:45:03.760Z,-0.08
2022-12-08T07:47:31.118Z,-0.06
2022-12-08T07:49:58.159Z,-0.09
2022-12-08T07:52:25.344Z,-0.05
2022-12-08T07:54:52.404Z,-0.08
2022-12-08T07:57:19.449Z,-0.01
2022-12-08T07:59:46.448Z,-0.03
2022-12-08T08:02:26.283Z,-0.03
2022-12-08T08:04:53.775Z,-0.02
2022-12-08T08:07:21.037Z,0.02
2022-12-08T08:09:48.113Z,0.07
2022-12-08T08:12:30.705Z,0.10
2022-12-08T08:14:59.219Z,0.11
2022-12-08T08:17:26.390Z,0.12
2022-12-08T08:19:53.563Z,0.16
2022-12-08T08:22:20.594Z,0.21
2022-12-08T08:24:47.583Z,0.21
2022-12-08T08:27:14.746Z,0.27
2022-12-08T08:29:41.876Z,0.28
2022-12-08T08:32:09.065Z,0.34
2022-12-08T08:34:36.154Z,0.33
2022-12-08T08:37:03.286Z,0.34
2022-12-08T08:39:31.997Z,0.37
2022-12-08T08:41:59.298Z,0.40
2022-12-08T08:44:26.478Z,0.47
2022-12-08T08:46:53.752Z,0.51
2022-12-08T08:49:21.547Z,0.54
2022-12-08T08:51:48.654Z,0.54
2022-12-08T08:54:15.925Z,0.55
2022-12-08T08:56:43.022Z,0.63
2022-12-08T08:59:10.911Z,0.65
2022-12-08T09:01:37.969Z,0.65
2022-12-08T09:04:05.285Z,0.68
2022-12-08T09:06:32.566Z,0.70
2022-12-08T09:08:59.835Z,0.65
2022-12-08T09:11:26.951Z,0.73
2022-12-08T09:13:54.843Z,0.68
2022-12-08T09:16:23.078Z,0.72
2022-12-08T09:18:50.856Z,0.73
2022-12-08T09:21:26.092Z,0.76
2022-12-08T09:23:55.346Z,0.75
2022-12-08T09:26:23.426Z,0.78
2022-12-08T09:28:51.903Z,0.78
2022-12-08T09:31:20.751Z,0.78
2022-12-08T09:33:48.426Z,0.79
2022-12-08T09:36:15.788Z,0.79
2022-12-08T09:38:42.820Z,0.77
2022-12-08T09:41:38.960Z,0.80
2022-12-08T09:44:33.294Z,0.79
2022-12-08T09:47:01.915Z,0.80
2022-12-08T09:49:40.276Z,0.79
2022-12-08T09:52:19.043Z,0.76
2022-12-08T09:54:46.197Z,0.77
2022-12-08T09:57:19.718Z,0.78
2022-12-08T09:59:53.598Z,0.78
2022-12-08T10:02:26.837Z,0.81
2022-12-08T10:04:56.317Z,0.86
2022-12-08T10:07:45.563Z,0.89
2022-12-08T10:10:21.468Z,0.91
2022-12-08T10:12:59.890Z,0.89
2022-12-08T10:15:46.317Z,0.92
2022-12-08T10:18:19.500Z,0.95
2022-12-08T10:20:49.315Z,0.99
2022-12-08T10:23:29.149Z,1.01
2022-12-08T10:26:26.587Z,0.98
2022-12-08T10:28:53.743Z,1.01
2022-12-08T10:31:23.856Z,1.04
2022-12-08T10:34:01.286Z,1.04
2022-12-08T10:36:51.521Z,1.06
2022-12-08T10:39:33.495Z,1.07
2022-12-08T10:42:02.964Z,1.06
2022-12-08T10:44:30.258Z,1.10
2022-12-08T10:46:58.710Z,1.12
2022-12-08T10:49:32.495Z,1.17
2022-12-08T10:51:59.667Z,1.18
2022-12-08T10:54:34.589Z,1.15
2022-12-08T10:57:02.012Z,1.20
2022-12-08T10:59:29.447Z,1.17
2022-12-08T11:01:57.772Z,1.23
2022-12-08T11:04:36.718Z,1.28
2022-12-08T11:07:06.552Z,1.28
2022-12-08T11:09:50.965Z,1.30
2022-12-08T11:12:22.325Z,1.29
2022-12-08T11:15:01.621Z,1.30
2022-12-08T11:17:35.999Z,1.33
2022-12-08T11:20:22.574Z,1.32
2022-12-08T11:22:55.242Z,1.37
2022-12-08T11:25:26.149Z,1.36
2022-12-08T11:27:57.539Z,1.31
2022-12-08T11:30:49.039Z,1.36
2022-12-08T11:33:16.069Z,1.36
2022-12-08T11:35:52.051Z,1.32
2022-12-08T11:38:25.051Z,1.34
2022-12-08T11:41:12.301Z,1.39
2022-12-08T11:43:48.501Z,1.21
2022-12-08T11:46:21.313Z,1.39
2022-12-08T11:48:55.057Z,1.40
2022-12-08T11:51:32.532Z,1.39
2022-12-08T11:54:02.313Z,1.41
2022-12-08T11:56:40.610Z,1.39
2022-12-08T11:59:31.790Z,1.40
2022-12-08T12:02:01.127Z,1.40
2022-12-08T12:04:50.964Z,1.35
2022-12-08T12:07:23.021Z,1.39
2022-12-08T12:10:14.886Z,1.38
2022-12-08T12:13:13.608Z,1.39
2022-12-08T12:16:22.034Z,1.43
2022-12-08T12:19:03.429Z,1.40
2022-12-08T12:21:40.161Z,1.44
2022-12-08T12:24:10.203Z,1.45
2022-12-08T12:27:10.178Z,1.48
2022-12-08T12:29:39.040Z,1.51
2022-12-08T12:32:08.888Z,1.56
2022-12-08T12:34:39.294Z,1.59
2022-12-08T12:37:11.336Z,1.59
2022-12-08T12:39:53.102Z,1.61
2022-12-08T12:42:42.691Z,1.61
2022-12-08T12:45:20.172Z,1.61
2022-12-08T12:47:56.232Z,1.62
2022-12-08T12:50:43.811Z,1.62
2022-12-08T12:53:16.528Z,1.61
2022-12-08T12:55:46.575Z,1.61
2022-12-08T12:58:36.664Z,1.64
2022-12-08T13:01:15.327Z,1.65
2022-12-08T13:03:49.960Z,1.65
2022-12-08T13:06:38.302Z,1.67
2022-12-08T13:09:07.466Z,1.71
2022-12-08T13:11:51.505Z,1.69
2022-12-08T13:14:29.634Z,1.69
2022-12-08T13:16:59.223Z,1.68
2022-12-08T13:19:29.662Z,1.72
2022-12-08T13:21:56.844Z,1.69
2022-12-08T13:24:29.620Z,1.71
2022-12-08T13:27:05.771Z,1.72
2022-12-08T13:29:34.117Z,1.72
2022-12-08T13:32:02.019Z,1.73
2022-12-08T13:34:33.420Z,1.72
2022-12-08T13:37:09.143Z,1.73
2022-12-08T13:39:39.207Z,1.70
2022-12-08T13:42:29.336Z,1.70
2022-12-08T13:45:30.152Z,1.67
2022-12-08T13:54:56.034Z,1.66
2022-12-08T13:57:05.133Z,1.69
2022-12-08T13:59:34.533Z,1.71
2022-12-08T14:02:30.344Z,1.70
2022-12-08T14:07:47.013Z,1.59
2022-12-08T14:10:21.101Z,1.71
2022-12-08T14:12:55.525Z,1.66
2022-12-08T14:15:22.857Z,1.68
2022-12-08T14:17:57.575Z,1.67
2022-12-08T14:20:33.814Z,1.65
2022-12-08T14:23:09.943Z,1.58
2022-12-08T14:25:38.901Z,1.62
2022-12-08T14:28:06.095Z,1.61
2022-12-08T14:30:34.775Z,1.58
2022-12-08T14:33:04.701Z,1.53
2022-12-08T14:35:39.094Z,1.57
2022-12-08T14:38:13.897Z,1.50
2022-12-08T14:40:46.699Z,1.49
2022-12-08T14:43:20.079Z,1.49
2022-12-08T14:45:48.443Z,1.51
2022-12-08T14:48:38.930Z,1.52
2022-12-08T14:51:12.691Z,1.53
2022-12-08T14:54:06.711Z,1.53
2022-12-08T14:56:38.851Z,1.49
2022-12-08T14:59:38.296Z,1.60
2022-12-08T15:02:20.003Z,1.58
2022-12-08T15:04:56.305Z,1.59
2022-12-08T15:07:26.314Z,1.58
2022-12-08T15:10:26.913Z,1.42
2022-12-08T15:13:07.563Z,1.55
2022-12-08T15:15:51.120Z,1.54
2022-12-08T15:18:21.803Z,1.52
2022-12-08T15:21:01.566Z,1.55
2022-12-08T15:23:42.845Z,1.55
2022-12-08T15:26:23.613Z,1.53
2022-12-08T15:28:51.421Z,1.52
2022-12-08T15:31:19.245Z,1.53
2022-12-08T15:33:46.387Z,1.54
2022-12-08T15:36:13.499Z,1.55
2022-12-08T15:38:40.561Z,1.55
2022-12-08T15:41:13.026Z,1.52
2022-12-08T15:43:41.860Z,1.54
2022-12-08T15:46:09.094Z,1.56
2022-12-08T15:48:37.938Z,1.56
2022-12-08T15:51:05.273Z,1.51
2022-12-08T15:53:32.286Z,1.52
2022-12-08T15:56:26.860Z,1.51
2022-12-08T15:58:54.754Z,1.53
2022-12-08T16:01:22.870Z,1.55
2022-12-08T16:07:19.763Z,1.57
2022-12-08T16:09:33.572Z,1.56
2022-12-08T16:12:19.502Z,1.55
2022-12-08T16:15:47.248Z,1.51
2022-12-08T16:17:34.287Z,1.53
2022-12-08T16:20:01.981Z,1.53
2022-12-08T16:25:22.437Z,1.58
2022-12-08T16:28:08.255Z,1.61
2022-12-08T16:30:40.005Z,1.62
2022-12-08T16:33:07.124Z,1.63
2022-12-08T16:35:34.203Z,1.62
2022-12-08T16:38:01.419Z,1.64
2022-12-08T16:40:28.666Z,1.63
2022-12-08T16:42:55.723Z,1.68
2022-12-08T16:45:28.659Z,1.69
2022-12-08T16:48:00.736Z,1.69
2022-12-08T16:50:29.533Z,1.69
2022-12-08T16:52:59.906Z,1.72
2022-12-08T16:55:27.617Z,1.70
2022-12-08T16:57:55.184Z,1.73
2022-12-08T17:00:25.046Z,1.72
2022-12-08T17:02:53.121Z,1.74
2022-12-08T17:05:22.810Z,1.48
2022-12-08T17:07:51.502Z,1.72
2022-12-08T17:10:25.315Z,1.72
2022-12-08T17:12:53.488Z,1.68
2022-12-08T17:15:23.891Z,1.73
2022-12-08T17:17:51.891Z,1.72
2022-12-08T17:20:29.682Z,1.70
2022-12-08T17:22:58.396Z,1.71
2022-12-08T17:25:26.987Z,1.71
2022-12-08T17:27:54.763Z,1.67
2022-12-08T17:30:22.101Z,1.66
2022-12-08T17:32:49.209Z,1.74
2022-12-08T17:35:16.383Z,1.56
2022-12-08T17:37:44.181Z,1.75
2022-12-08T17:40:11.741Z,1.75
2022-12-08T17:42:39.192Z,1.81
2022-12-08T17:45:10.371Z,1.84
2022-12-08T17:47:37.914Z,1.85
2022-12-08T17:50:06.861Z,1.86
2022-12-08T17:52:34.503Z,1.83
2022-12-08T17:55:01.579Z,1.91
2022-12-08T17:57:28.690Z,1.93
2022-12-08T17:59:56.005Z,1.95
2022-12-08T18:02:23.381Z,1.82
2022-12-08T18:04:50.594Z,1.97
2022-12-08T18:07:17.771Z,1.94
2022-12-08T18:09:44.843Z,1.98
2022-12-08T18:12:11.985Z,1.98
2022-12-08T18:14:39.084Z,1.98
2022-12-08T18:17:06.271Z,2.00
2022-12-08T18:19:33.744Z,2.04
2022-12-08T18:22:01.686Z,2.04
2022-12-08T18:24:28.855Z,2.05
2022-12-08T18:26:57.606Z,2.06
2022-12-08T18:29:25.359Z,2.07
2022-12-08T18:31:52.574Z,2.06
2022-12-08T18:34:19.988Z,2.06
2022-12-08T18:36:48.062Z,2.00
2022-12-08T18:39:32.481Z,2.07
2022-12-08T18:42:02.770Z,2.07
2022-12-08T18:44:29.993Z,2.07
2022-12-08T18:46:57.098Z,2.09
2022-12-08T18:49:24.096Z,2.11
2022-12-08T18:51:51.203Z,2.08
2022-12-08T18:54:22.028Z,2.10
2022-12-08T18:56:51.617Z,2.11
2022-12-08T18:59:20.700Z,2.12
2022-12-08T19:01:47.755Z,2.08
2022-12-08T19:04:32.643Z,2.15
2022-12-08T19:07:01.812Z,2.12
2022-12-08T19:09:29.290Z,2.12
2022-12-08T19:11:57.315Z,2.12
2022-12-08T19:14:28.286Z,2.16
2022-12-08T19:16:59.782Z,2.13
2022-12-08T19:19:27.799Z,2.10
2022-12-08T19:21:55.110Z,2.14
2022-12-08T19:24:22.539Z,2.12
2022-12-08T19:26:49.810Z,2.10
2022-12-08T19:29:17.288Z,2.08
2022-12-08T19:31:44.635Z,2.05
2022-12-08T19:34:13.699Z,2.01
2022-12-08T19:36:43.180Z,1.98
2022-12-08T19:39:46.823Z,2.00
2022-12-08T19:42:38.681Z,1.95
2022-12-08T19:45:07.891Z,1.89
2022-12-08T19:47:35.132Z,1.93
2022-12-08T19:50:22.515Z,1.89
2022-12-08T19:52:50.111Z,1.77
2022-12-08T19:55:17.341Z,1.73
2022-12-08T19:57:44.483Z,1.69
2022-12-08T20:00:13.072Z,1.62
2022-12-08T20:02:40.294Z,1.49
2022-12-08T20:05:08.925Z,1.52
2022-12-08T20:07:36.212Z,1.48
2022-12-08T20:10:07.321Z,1.41
2022-12-08T20:12:34.581Z,1.40
2022-12-08T20:15:01.860Z,1.36
2022-12-08T20:17:28.931Z,1.33
2022-12-08T20:19:56.009Z,1.32
2022-12-08T20:22:23.088Z,1.33
2022-12-08T20:24:58.267Z,1.35
2022-12-08T20:27:29.272Z,1.36
2022-12-08T20:29:56.416Z,1.33
2022-12-08T20:32:23.571Z,1.33
2022-12-08T20:34:50.796Z,1.32
2022-12-08T20:37:17.870Z,1.32
2022-12-08T20:39:44.994Z,1.29
2022-12-08T20:42:13.986Z,1.27
2022-12-08T20:44:44.663Z,1.26
2022-12-08T20:47:13.167Z,1.29
2022-12-08T20:49:40.439Z,1.29
2022-12-08T20:52:08.641Z,1.24
2022-12-08T20:54:37.346Z,1.17
2022-12-08T20:57:04.930Z,1.24
2022-12-08T20:59:32.372Z,1.22
2022-12-08T21:02:00.794Z,1.21
2022-12-08T21:04:28.293Z,1.21
2022-12-08T21:06:55.801Z,1.20
2022-12-08T21:09:23.209Z,1.19
2022-12-08T21:11:50.429Z,1.21
2022-12-08T21:14:17.978Z,1.25
2022-12-08T21:16:45.589Z,1.24
2022-12-08T21:19:13.088Z,1.27
2022-12-08T21:21:40.221Z,1.25
2022-12-08T21:24:07.812Z,1.28
2022-12-08T21:26:34.872Z,1.26
2022-12-08T21:29:01.983Z,1.23
2022-12-08T21:31:31.982Z,1.14
2022-12-08T21:33:59.918Z,1.17
2022-12-08T21:36:27.452Z,1.15
2022-12-08T21:38:55.294Z,1.22
2022-12-08T21:41:42.115Z,1.23
2022-12-08T21:44:11.930Z,1.20
2022-12-08T21:46:39.215Z,1.22
2022-12-08T21:49:06.724Z,1.23
2022-12-08T21:51:37.942Z,1.24
2022-12-08T21:54:05.429Z,1.26
2022-12-08T21:56:32.635Z,1.26
2022-12-08T21:58:59.867Z,1.27
2022-12-08T22:01:27.198Z,1.25
2022-12-08T22:03:54.812Z,1.25
2022-12-08T22:06:22.123Z,1.21
2022-12-08T22:08:49.281Z,1.18
2022-12-08T22:11:17.077Z,1.22
2022-12-08T22:13:44.438Z,1.25
2022-12-08T22:16:14.966Z,1.25
2022-12-08T22:18:42.608Z,1.27
2022-12-08T22:21:18.399Z,1.27
2022-12-08T22:23:45.613Z,1.24
2022-12-08T22:26:13.541Z,1.27
2022-12-08T22:28:43.039Z,1.27
2022-12-08T22:31:18.565Z,1.28
2022-12-08T22:33:45.995Z,1.27
2022-12-08T22:36:19.432Z,1.22
2022-12-08T22:38:47.329Z,1.30
2022-12-08T22:41:15.413Z,1.28
2022-12-08T22:43:43.012Z,1.28
2022-12-08T22:46:14.462Z,1.29
2022-12-08T22:48:41.884Z,1.30
2022-12-08T22:51:09.784Z,1.30
2022-12-08T22:53:37.201Z,1.31
2022-12-08T22:56:05.777Z,1.29
2022-12-08T22:58:33.086Z,1.36
2022-12-08T23:01:00.328Z,1.36
2022-12-08T23:03:27.462Z,1.31
2022-12-08T23:05:54.736Z,1.38
2022-12-08T23:08:21.860Z,1.38
2022-12-08T23:10:51.070Z,1.38
2022-12-08T23:13:18.618Z,1.28
2022-12-08T23:15:46.029Z,1.37
2022-12-08T23:18:19.274Z,1.30
2022-12-08T23:20:47.779Z,1.32
2022-12-08T23:23:15.449Z,1.29
2022-12-08T23:25:43.861Z,1.33
2022-12-08T23:28:11.387Z,1.37
2022-12-08T23:30:41.453Z,1.38
2022-12-08T23:33:08.619Z,1.38
2022-12-08T23:35:35.869Z,1.39
2022-12-08T23:38:03.011Z,1.36
2022-12-08T23:40:30.540Z,1.33
2022-12-08T23:42:57.751Z,1.42
2022-12-08T23:45:24.908Z,1.41
2022-12-08T23:47:52.309Z,1.41
2022-12-08T23:50:19.677Z,1.40
2022-12-08T23:52:46.799Z,1.37
2022-12-08T23:55:19.461Z,1.37
2022-12-08T23:57:46.773Z,1.35
